createdAt,value
2022-08-26T00:02:02.420Z,68.79
2022-08-26T00:04:50.355Z,68.86
2022-08-26T00:07:38.098Z,68.97
2022-08-26T00:10:25.968Z,69.10
2022-08-26T00:13:14.817Z,69.32
2022-08-26T00:16:03.206Z,69.41
2022-08-26T00:18:53.141Z,69.11
2022-08-26T00:21:40.792Z,69.39
2022-08-26T00:24:28.445Z,70.21
2022-08-26T00:27:15.905Z,71.18
2022-08-26T00:30:05.392Z,72.10
2022-08-26T00:32:53.008Z,72.78
2022-08-26T00:35:41.200Z,72.74
2022-08-26T00:38:30.344Z,72.94
2022-08-26T00:41:19.423Z,73.54
2022-08-26T00:44:06.968Z,74.25
2022-08-26T00:46:58.975Z,74.86
2022-08-26T00:49:48.071Z,75.26
2022-08-26T00:52:36.248Z,75.82
2022-08-26T00:55:38.028Z,75.97
2022-08-26T00:58:26.392Z,76.11
2022-08-26T01:01:14.043Z,76.18
2022-08-26T01:04:02.048Z,76.25
2022-08-26T01:06:52.440Z,76.49
2022-08-26T01:09:39.999Z,76.74
2022-08-26T01:12:29.553Z,76.98
2022-08-26T01:15:21.944Z,76.64
2022-08-26T01:18:09.304Z,76.45
2022-08-26T01:21:19.255Z,76.42
2022-08-26T01:24:07.672Z,76.31
2022-08-26T01:27:03.505Z,76.17
2022-08-26T01:29:51.936Z,76.43
2022-08-26T01:32:42.012Z,77.02
2022-08-26T01:35:30.399Z,77.65
2022-08-26T01:38:18.559Z,78.37
2022-08-26T01:41:16.354Z,78.77
2022-08-26T01:43:57.890Z,79.61
2022-08-26T01:46:47.072Z,79.81
2022-08-26T01:49:36.768Z,80.58
2022-08-26T01:52:28.272Z,81.80
2022-08-26T01:55:27.660Z,81.63
2022-08-26T01:58:06.544Z,81.16
2022-08-26T02:00:54.106Z,80.86
2022-08-26T02:03:45.062Z,80.40
2022-08-26T02:06:34.312Z,80.03
2022-08-26T02:09:22.114Z,79.69
2022-08-26T02:12:11.448Z,79.37
2022-08-26T02:15:00.839Z,79.02
2022-08-26T02:17:48.880Z,79.09
2022-08-26T02:20:38.000Z,79.58
2022-08-26T02:23:25.188Z,79.89
2022-08-26T02:26:18.022Z,80.11
2022-08-26T02:29:12.887Z,80.35
2022-08-26T02:32:01.967Z,80.27
2022-08-26T02:34:49.520Z,79.83
2022-08-26T02:37:37.001Z,79.38
2022-08-26T02:40:28.993Z,78.86
2022-08-26T02:43:17.165Z,78.61
2022-08-26T02:46:06.008Z,78.45
2022-08-26T02:48:53.836Z,78.33
2022-08-26T02:51:41.347Z,78.97
2022-08-26T02:54:30.495Z,79.42
2022-08-26T02:57:19.687Z,79.97
2022-08-26T03:00:11.049Z,80.01
2022-08-26T03:02:59.226Z,79.93
2022-08-26T03:05:47.416Z,79.95
2022-08-26T03:08:34.575Z,80.01
2022-08-26T03:11:21.855Z,80.02
2022-08-26T03:14:09.217Z,80.11
2022-08-26T03:16:56.639Z,80.11
2022-08-26T03:19:44.243Z,80.20
2022-08-26T03:22:31.463Z,79.99
2022-08-26T03:25:19.233Z,79.72
2022-08-26T03:28:06.559Z,79.53
2022-08-26T03:30:57.172Z,79.43
2022-08-26T03:33:44.424Z,79.33
2022-08-26T03:36:33.647Z,79.43
2022-08-26T03:39:22.607Z,79.53
2022-08-26T03:42:10.708Z,79.80
2022-08-26T03:44:58.521Z,80.08
2022-08-26T03:47:45.655Z,80.14
2022-08-26T03:50:34.399Z,80.06
2022-08-26T03:53:23.912Z,79.98
2022-08-26T03:56:11.960Z,79.93
2022-08-26T03:59:00.087Z,80.09
2022-08-26T04:01:47.425Z,80.16
2022-08-26T04:04:37.520Z,80.08
2022-08-26T04:07:26.080Z,79.64
2022-08-26T04:10:15.426Z,79.05
2022-08-26T04:13:04.876Z,78.45
2022-08-26T04:15:52.324Z,77.72
2022-08-26T04:18:40.613Z,77.22
2022-08-26T04:21:30.098Z,76.14
2022-08-26T04:24:18.304Z,76.14
2022-08-26T04:27:06.761Z,75.22
2022-08-26T04:29:55.711Z,74.36
2022-08-26T04:32:43.207Z,73.51
2022-08-26T04:35:31.311Z,73.37
2022-08-26T04:38:20.071Z,74.82
2022-08-26T04:41:15.708Z,74.40
2022-08-26T04:43:59.015Z,73.72
2022-08-26T04:46:46.617Z,73.24
2022-08-26T04:49:35.248Z,72.93
2022-08-26T04:52:22.848Z,72.08
2022-08-26T04:55:10.976Z,71.39
2022-08-26T04:57:58.449Z,70.99
2022-08-26T05:00:47.671Z,70.26
2022-08-26T05:03:34.884Z,69.92
2022-08-26T05:06:22.248Z,69.60
2022-08-26T05:09:09.495Z,69.25
2022-08-26T05:11:56.904Z,68.72
2022-08-26T05:14:43.928Z,68.19
2022-08-26T05:17:31.553Z,67.73
2022-08-26T05:20:22.638Z,66.13
2022-08-26T05:23:08.370Z,65.14
2022-08-26T05:25:59.261Z,64.10
2022-08-26T05:28:46.667Z,63.54
2022-08-26T05:31:36.348Z,63.07
2022-08-26T05:34:23.855Z,62.85
2022-08-26T05:37:13.657Z,62.90
2022-08-26T05:40:02.913Z,62.93
2022-08-26T05:42:53.143Z,62.56
2022-08-26T05:45:46.084Z,62.08
2022-08-26T05:48:32.632Z,61.54
2022-08-26T05:51:25.887Z,59.81
2022-08-26T05:54:11.167Z,58.85
2022-08-26T05:56:58.961Z,58.66
2022-08-26T05:59:46.208Z,58.82
2022-08-26T06:02:33.309Z,58.11
2022-08-26T06:05:21.256Z,58.69
2022-08-26T06:08:13.671Z,58.17
2022-08-26T06:11:02.815Z,57.69
2022-08-26T06:13:50.087Z,56.63
2022-08-26T06:16:40.739Z,54.99
2022-08-26T06:19:32.736Z,54.34
2022-08-26T06:22:36.152Z,54.12
2022-08-26T06:25:39.186Z,53.22
2022-08-26T06:28:27.505Z,53.40
2022-08-26T06:31:15.960Z,53.73
2022-08-26T06:34:10.341Z,53.21
2022-08-26T06:36:54.080Z,52.44
2022-08-26T06:39:41.991Z,51.40
2022-08-26T06:42:29.842Z,51.17
2022-08-26T06:45:17.588Z,50.69
2022-08-26T06:48:05.783Z,49.94
2022-08-26T06:51:06.656Z,48.73
2022-08-26T06:53:55.961Z,48.06
2022-08-26T06:56:45.455Z,47.46
2022-08-26T06:59:34.505Z,47.00
2022-08-26T07:02:22.735Z,47.72
2022-08-26T07:05:10.713Z,50.21
2022-08-26T07:07:58.967Z,50.02
2022-08-26T07:10:46.170Z,50.36
2022-08-26T07:13:35.624Z,50.06
2022-08-26T07:16:23.391Z,48.38
2022-08-26T07:19:11.616Z,47.95
2022-08-26T07:22:03.648Z,45.61
2022-08-26T07:24:51.867Z,43.84
2022-08-26T07:27:39.856Z,42.11
2022-08-26T07:30:27.776Z,41.92
2022-08-26T07:33:14.873Z,41.17
2022-08-26T07:36:02.657Z,40.34
2022-08-26T07:38:53.048Z,39.85
2022-08-26T07:41:40.823Z,39.01
2022-08-26T07:44:27.945Z,38.75
2022-08-26T07:47:24.694Z,37.64
2022-08-26T07:50:05.792Z,37.00
2022-08-26T07:52:53.649Z,36.78
2022-08-26T07:55:41.015Z,36.33
2022-08-26T07:58:30.297Z,37.03
2022-08-26T08:01:17.641Z,36.19
2022-08-26T08:04:06.278Z,36.34
2022-08-26T08:06:55.295Z,36.03
2022-08-26T08:09:42.840Z,33.75
2022-08-26T08:12:30.216Z,32.87
2022-08-26T08:15:20.327Z,33.90
2022-08-26T08:18:07.227Z,33.91
2022-08-26T08:21:10.873Z,33.36
2022-08-26T08:23:45.575Z,33.24
2022-08-26T08:26:34.913Z,33.58
2022-08-26T08:29:22.807Z,32.50
2022-08-26T08:32:11.629Z,32.42
2022-08-26T08:35:00.196Z,32.15
2022-08-26T08:37:48.231Z,31.53
2022-08-26T08:40:36.483Z,31.90
2022-08-26T08:43:41.359Z,31.94
2022-08-26T08:46:30.381Z,31.55
2022-08-26T08:49:18.560Z,32.44
2022-08-26T08:52:23.808Z,32.67
2022-08-26T08:55:17.754Z,32.16
2022-08-26T08:58:12.263Z,30.48
2022-08-26T09:01:04.811Z,30.48
2022-08-26T09:04:07.919Z,31.57
2022-08-26T09:09:48.856Z,30.88
2022-08-26T09:12:36.751Z,29.74
2022-08-26T09:18:31.440Z,29.70
2022-08-26T09:21:22.551Z,29.70
2022-08-26T09:24:11.314Z,27.16
2022-08-26T09:27:00.200Z,26.94
2022-08-26T09:29:50.387Z,27.22
2022-08-26T09:32:36.603Z,28.57
2022-08-26T09:35:31.178Z,29.16
2022-08-26T09:38:26.890Z,27.80
2022-08-26T09:41:26.882Z,28.33
2022-08-26T09:44:19.207Z,27.47
2022-08-26T09:47:08.975Z,27.25
2022-08-26T09:50:13.504Z,28.63
2022-08-26T09:53:28.782Z,27.92
2022-08-26T09:56:15.335Z,27.25
2022-08-26T09:59:04.016Z,26.58
2022-08-26T10:01:53.236Z,26.73
2022-08-26T10:04:40.737Z,27.59
2022-08-26T10:07:39.000Z,28.09
2022-08-26T10:10:38.205Z,27.40
2022-08-26T10:13:35.770Z,27.41
2022-08-26T10:16:25.587Z,27.34
2022-08-26T10:19:25.639Z,27.08
2022-08-26T10:22:32.039Z,26.64
2022-08-26T10:25:31.736Z,25.83
2022-08-26T10:28:22.448Z,25.85
2022-08-26T10:31:42.092Z,26.73
2022-08-26T10:34:29.527Z,26.11
2022-08-26T10:37:24.703Z,25.38
2022-08-26T10:43:21.119Z,26.19
2022-08-26T10:46:16.100Z,26.17
2022-08-26T10:49:13.991Z,25.17
2022-08-26T10:52:12.384Z,25.42
2022-08-26T10:55:22.265Z,24.43
2022-08-26T10:58:26.714Z,25.05
2022-08-26T11:01:41.598Z,25.54
2022-08-26T11:04:51.690Z,26.38
2022-08-26T11:07:48.648Z,26.49
2022-08-26T11:10:48.530Z,25.45
2022-08-26T11:13:59.455Z,25.74
2022-08-26T11:20:00.332Z,25.61
2022-08-26T11:22:39.754Z,25.28
2022-08-26T11:25:30.906Z,23.56
2022-08-26T11:28:20.258Z,23.90
2022-08-26T11:31:27.291Z,25.16
2022-08-26T11:34:15.879Z,25.04
2022-08-26T11:37:05.144Z,25.37
2022-08-26T11:39:57.097Z,25.13
2022-08-26T11:42:59.667Z,25.10
2022-08-26T11:45:49.555Z,25.10
2022-08-26T11:48:43.355Z,22.77
2022-08-26T11:51:31.958Z,23.95
2022-08-26T11:54:26.919Z,25.26
2022-08-26T11:57:13.634Z,24.40
2022-08-26T12:00:01.605Z,24.57
2022-08-26T12:02:49.864Z,24.71
2022-08-26T12:05:39.759Z,22.93
2022-08-26T12:08:29.099Z,22.64
2022-08-26T12:11:21.891Z,23.50
2022-08-26T12:14:18.745Z,22.94
2022-08-26T12:17:17.575Z,23.78
2022-08-26T12:20:07.783Z,23.42
2022-08-26T12:22:55.682Z,24.13
2022-08-26T12:25:44.216Z,24.04
2022-08-26T12:28:33.703Z,23.34
2022-08-26T12:31:29.724Z,23.37
2022-08-26T12:34:18.624Z,23.35
2022-08-26T12:37:06.239Z,23.10
2022-08-26T12:39:54.987Z,23.42
2022-08-26T12:42:43.511Z,23.41
2022-08-26T12:45:45.091Z,23.44
2022-08-26T12:48:36.172Z,23.00
2022-08-26T12:51:26.232Z,22.00
2022-08-26T12:54:17.823Z,22.76
2022-08-26T12:57:12.775Z,23.18
2022-08-26T13:00:19.592Z,23.79
2022-08-26T13:03:46.803Z,22.15
2022-08-26T13:06:35.089Z,22.49
2022-08-26T13:09:25.646Z,21.82
2022-08-26T13:12:13.400Z,21.07
2022-08-26T13:15:02.241Z,20.19
2022-08-26T13:17:50.135Z,19.59
2022-08-26T13:20:40.860Z,20.60
2022-08-26T13:23:28.335Z,19.33
2022-08-26T13:26:15.718Z,20.39
2022-08-26T13:29:06.253Z,21.19
2022-08-26T13:31:53.017Z,21.11
2022-08-26T13:34:40.734Z,20.52
2022-08-26T13:37:34.384Z,19.46
2022-08-26T13:40:17.513Z,18.32
2022-08-26T13:43:04.937Z,17.53
2022-08-26T13:45:52.470Z,17.57
2022-08-26T13:48:41.100Z,17.21
2022-08-26T13:51:30.584Z,16.94
2022-08-26T13:54:18.224Z,16.85
2022-08-26T13:57:06.303Z,16.53
2022-08-26T13:59:54.159Z,16.70
2022-08-26T14:02:41.855Z,16.99
2022-08-26T14:05:30.248Z,16.55
2022-08-26T14:08:18.096Z,16.56
2022-08-26T14:11:05.593Z,16.07
2022-08-26T14:13:53.047Z,15.79
2022-08-26T14:16:59.718Z,15.89
2022-08-26T14:19:31.371Z,15.74
2022-08-26T14:22:21.082Z,15.83
2022-08-26T14:25:08.992Z,15.61
2022-08-26T14:27:58.271Z,15.36
2022-08-26T14:30:49.273Z,15.45
2022-08-26T14:33:38.434Z,15.67
2022-08-26T14:36:28.682Z,15.61
2022-08-26T14:39:15.895Z,15.58
2022-08-26T14:42:03.431Z,15.31
2022-08-26T14:44:56.400Z,15.16
2022-08-26T14:47:43.816Z,15.00
2022-08-26T14:50:31.248Z,15.55
2022-08-26T14:53:36.559Z,15.94
2022-08-26T14:56:24.351Z,15.87
2022-08-26T14:59:14.391Z,16.11
2022-08-26T15:02:02.284Z,16.14
2022-08-26T15:04:50.727Z,16.19
2022-08-26T15:07:39.111Z,16.17
2022-08-26T15:10:26.891Z,16.04
2022-08-26T15:13:14.566Z,16.18
2022-08-26T15:16:02.279Z,16.34
2022-08-26T15:18:51.359Z,15.96
2022-08-26T15:21:38.842Z,16.05
2022-08-26T15:24:29.063Z,16.21
2022-08-26T15:27:16.983Z,16.29
2022-08-26T15:30:07.648Z,16.11
2022-08-26T15:32:55.400Z,16.22
2022-08-26T15:35:42.946Z,16.56
2022-08-26T15:38:32.808Z,16.67
2022-08-26T15:41:20.447Z,16.95
2022-08-26T15:44:08.662Z,16.99
2022-08-26T15:46:58.622Z,17.25
2022-08-26T15:49:45.683Z,17.36
2022-08-26T15:52:33.095Z,17.68
2022-08-26T15:55:20.933Z,17.89
2022-08-26T15:58:10.687Z,17.90
2022-08-26T16:00:58.240Z,17.92
2022-08-26T16:03:46.463Z,18.30
2022-08-26T16:06:36.754Z,18.76
2022-08-26T16:09:26.668Z,19.41
2022-08-26T16:15:01.655Z,20.63
2022-08-26T16:17:49.256Z,20.53
2022-08-26T16:20:39.231Z,20.85
2022-08-26T16:23:27.159Z,20.83
2022-08-26T16:26:17.920Z,21.00
2022-08-26T16:29:08.720Z,21.93
2022-08-26T16:31:56.223Z,23.04
2022-08-26T16:34:56.793Z,23.83
2022-08-26T16:37:37.674Z,25.39
2022-08-26T16:40:25.150Z,27.70
2022-08-26T16:43:15.271Z,28.75
2022-08-26T16:46:02.257Z,29.03
2022-08-26T16:48:49.855Z,29.44
2022-08-26T16:51:38.002Z,30.18
2022-08-26T16:54:26.479Z,31.25
2022-08-26T16:57:14.529Z,31.96
2022-08-26T17:00:05.183Z,32.50
2022-08-26T17:02:54.108Z,33.42
2022-08-26T17:05:41.882Z,34.36
2022-08-26T17:08:29.098Z,35.26
2022-08-26T17:11:16.839Z,37.18
2022-08-26T17:14:04.406Z,37.18
2022-08-26T17:16:53.719Z,37.38
2022-08-26T17:19:47.092Z,37.95
2022-08-26T17:22:34.509Z,39.50
2022-08-26T17:25:29.816Z,39.91
2022-08-26T17:28:17.440Z,39.71
2022-08-26T17:31:05.307Z,39.95
2022-08-26T17:33:54.258Z,41.93
2022-08-26T17:36:42.033Z,43.28
2022-08-26T17:39:29.248Z,44.18
2022-08-26T17:42:16.337Z,45.00
2022-08-26T17:45:04.105Z,45.63
2022-08-26T17:47:52.454Z,46.63
2022-08-26T17:50:41.443Z,47.59
2022-08-26T17:53:29.625Z,48.75
2022-08-26T17:56:19.047Z,49.24
2022-08-26T17:59:06.233Z,49.63
2022-08-26T18:01:55.677Z,50.64
2022-08-26T18:04:43.265Z,50.99
2022-08-26T18:07:33.793Z,51.35
2022-08-26T18:10:24.824Z,51.82
2022-08-26T18:13:14.266Z,52.55
2022-08-26T18:16:03.463Z,52.52
2022-08-26T18:18:52.888Z,52.29
2022-08-26T18:21:40.400Z,52.24
2022-08-26T18:24:29.465Z,52.70
2022-08-26T18:27:17.089Z,53.02
2022-08-26T18:30:07.249Z,53.19
2022-08-26T18:32:54.706Z,53.60
2022-08-26T18:35:44.184Z,53.21
2022-08-26T18:38:31.539Z,52.80
2022-08-26T18:41:22.000Z,52.32
2022-08-26T18:44:13.414Z,52.44
2022-08-26T18:46:58.881Z,52.57
2022-08-26T18:49:47.402Z,53.33
2022-08-26T18:52:34.912Z,53.71
2022-08-26T18:55:22.240Z,53.78
2022-08-26T18:58:09.884Z,53.74
2022-08-26T19:00:58.943Z,54.33
2022-08-26T19:03:50.107Z,54.88
2022-08-26T19:06:39.609Z,55.26
2022-08-26T19:09:27.450Z,55.52
2022-08-26T19:12:15.225Z,55.52
2022-08-26T19:15:03.360Z,55.79
2022-08-26T19:17:50.912Z,56.12
2022-08-26T19:20:46.671Z,56.03
2022-08-26T19:23:32.838Z,55.73
2022-08-26T19:26:20.671Z,55.41
2022-08-26T19:29:08.296Z,56.44
2022-08-26T19:31:55.832Z,56.36
2022-08-26T19:34:43.629Z,56.10
2022-08-26T19:37:31.537Z,56.09
2022-08-26T19:40:19.305Z,56.17
2022-08-26T19:43:07.000Z,56.20
2022-08-26T19:45:54.478Z,56.07
2022-08-26T19:48:45.369Z,56.21
2022-08-26T19:51:35.586Z,56.30
2022-08-26T19:54:23.361Z,56.44
2022-08-26T19:57:11.129Z,56.57
2022-08-26T20:00:00.785Z,56.48
2022-08-26T20:02:49.033Z,56.58
2022-08-26T20:05:36.796Z,56.58
2022-08-26T20:08:24.825Z,56.58
2022-08-26T20:11:14.586Z,56.71
2022-08-26T20:14:02.016Z,57.46
2022-08-26T20:16:49.655Z,57.46
2022-08-26T20:19:54.897Z,58.30
2022-08-26T20:22:42.440Z,58.46
2022-08-26T20:25:30.778Z,58.57
2022-08-26T20:28:18.882Z,58.82
2022-08-26T20:31:07.640Z,59.09
2022-08-26T20:33:57.535Z,59.56
2022-08-26T20:36:46.216Z,60.10
2022-08-26T20:39:33.936Z,60.27
2022-08-26T20:42:21.552Z,60.18
2022-08-26T20:45:09.689Z,60.21
2022-08-26T20:47:57.314Z,60.36
2022-08-26T20:50:46.489Z,60.37
2022-08-26T20:53:34.431Z,60.28
2022-08-26T20:56:24.366Z,60.07
2022-08-26T20:59:12.256Z,60.15
2022-08-26T21:02:00.823Z,61.81
2022-08-26T21:04:48.658Z,62.13
2022-08-26T21:07:36.399Z,61.10
2022-08-26T21:10:23.804Z,60.90
2022-08-26T21:13:11.143Z,62.48
2022-08-26T21:15:59.434Z,63.55
2022-08-26T21:18:47.911Z,65.39
2022-08-26T21:21:35.186Z,65.60
2022-08-26T21:24:23.464Z,65.67
2022-08-26T21:27:10.639Z,66.02
2022-08-26T21:29:57.768Z,66.33
2022-08-26T21:32:45.271Z,66.47
2022-08-26T21:35:32.764Z,65.90
2022-08-26T21:38:21.342Z,66.04
2022-08-26T21:41:13.033Z,66.48
2022-08-26T21:44:01.170Z,67.17
2022-08-26T21:46:49.958Z,67.74
2022-08-26T21:49:37.263Z,68.14
2022-08-26T21:52:24.877Z,68.28
2022-08-26T21:55:12.304Z,68.10
2022-08-26T21:57:59.321Z,68.15
2022-08-26T22:00:53.444Z,68.52
2022-08-26T22:03:47.464Z,68.20
2022-08-26T22:06:30.638Z,67.80
2022-08-26T22:09:26.239Z,67.45
2022-08-26T22:12:15.550Z,67.64
2022-08-26T22:15:03.679Z,68.00
2022-08-26T22:17:51.089Z,68.52
2022-08-26T22:20:39.327Z,68.79
2022-08-26T22:23:39.275Z,69.14
2022-08-26T22:26:27.222Z,69.67
2022-08-26T22:29:14.784Z,70.26
2022-08-26T22:32:02.862Z,70.83
2022-08-26T22:34:50.167Z,71.40
2022-08-26T22:37:37.619Z,72.13
2022-08-26T22:40:25.241Z,72.64
2022-08-26T22:43:13.079Z,73.00
2022-08-26T22:46:00.606Z,72.62
2022-08-26T22:48:53.864Z,72.01
2022-08-26T22:51:37.422Z,71.01
2022-08-26T22:54:24.593Z,70.77
2022-08-26T22:57:11.903Z,71.01
2022-08-26T22:59:59.703Z,71.44
2022-08-26T23:02:47.126Z,72.22
2022-08-26T23:05:35.388Z,72.65
2022-08-26T23:08:23.294Z,72.73
2022-08-26T23:11:12.358Z,72.69
2022-08-26T23:14:00.023Z,73.00
2022-08-26T23:16:49.017Z,72.79
2022-08-26T23:19:36.727Z,72.50
2022-08-26T23:22:24.071Z,72.14
2022-08-26T23:25:12.047Z,71.84
2022-08-26T23:28:00.727Z,71.57
2022-08-26T23:30:48.862Z,71.35
2022-08-26T23:33:54.056Z,73.01
2022-08-26T23:36:43.383Z,74.29
2022-08-26T23:39:36.654Z,74.60
2022-08-26T23:42:24.367Z,74.24
2022-08-26T23:45:16.630Z,73.85
2022-08-26T23:48:04.712Z,73.72
2022-08-26T23:51:10.118Z,73.69
2022-08-26T23:53:58.128Z,73.53
2022-08-26T23:56:45.713Z,73.31
2022-08-26T23:59:34.177Z,73.07
